EST,Max TemperatureF,Mean TemperatureF,Min TemperatureF,Max Dew PointF,MeanDew PointF,Min DewpointF,Max Humidity, Mean Humidity, Min Humidity, Max Sea Level PressureIn, Mean Sea Level PressureIn, Min Sea Level PressureIn, Max VisibilityMiles, Mean VisibilityMiles, Min VisibilityMiles, Max Wind SpeedMPH, Mean Wind SpeedMPH, Max Gust SpeedMPH,PrecipitationIn, CloudCover, Events, WindDirDegrees
2010-11-1,87,82,76,72,69,66,82,72,61,30.15,30.10,30.06,10,10,10,20,9,23,0.00,4,,107
2010-11-2,86,82,78,67,65,64,67,58,48,30.11,30.04,29.98,10,10,10,17,11,23,0.00,4,,95
2010-11-3,86,80,74,72,69,65,87,74,61,29.99,29.89,29.81,10,10,10,21,10,26,0.04,6,Rain,126
2010-11-4,81,76,71,73,70,68,100,85,69,29.81,29.69,29.62,10,8,0,17,7,23,0.93,7,Fog-Rain,229
2010-11-5,71,63,54,68,50,35,90,60,30,30.05,29.81,29.64,10,10,10,26,13,33,0.00,2,,311
2010-11-6,67,59,50,40,36,32,59,44,28,30.20,30.12,30.05,10,10,10,21,11,25,0.00,1,,338
2010-11-7,75,64,52,57,48,35,84,67,49,30.19,30.12,30.07,10,10,10,22,14,26,T,5,,321
2010-11-8,73,66,59,56,53,50,84,67,49,30.09,30.04,29.99,10,10,10,18,11,23,0.00,5,,333
2010-11-9,81,68,54,54,48,40,87,57,26,30.05,30.00,29.96,10,10,10,10,4,14,0.00,0,,328
2010-11-10,83,69,55,61,55,48,87,62,36,30.07,30.02,29.97,10,10,10,13,4,15,0.00,1,,337
2010-11-11,83,72,61,62,58,53,93,67,40,30.15,30.11,30.05,10,10,10,18,8,26,T,3,,358
2010-11-12,81,73,65,66,59,56,100,71,42,30.16,30.11,30.09,10,10,8,22,11,25,0.11,5,Rain,24
2010-11-13,81,72,62,62,58,54,84,63,42,30.11,30.07,30.01,10,10,10,17,9,22,0.00,5,,342
2010-11-14,80,71,62,61,59,55,90,66,42,30.07,30.02,29.99,10,10,8,14,6,17,0.00,3,,349
2010-11-15,82,73,64,64,59,54,87,63,39,30.00,29.96,29.92,10,10,10,18,5,24,T,3,Rain,156
2010-11-16,85,75,64,66,63,59,84,66,47,29.99,29.93,29.88,10,10,10,17,6,21,0.00,2,,189
2010-11-17,85,74,62,70,66,60,93,71,48,30.08,30.03,29.98,10,10,9,12,3,15,0.00,2,,124
2010-11-18,84,75,66,71,66,55,97,76,55,30.12,30.07,30.01,10,9,5,17,5,21,0.02,5,Rain,335
2010-11-19,79,69,59,58,55,52,84,65,45,30.20,30.14,30.07,10,10,10,20,11,24,0.00,6,,42
2010-11-20,81,77,73,62,57,52,64,53,42,30.24,30.19,30.15,10,10,10,17,10,24,0.00,4,,84
2010-11-21,83,75,66,65,61,58,81,62,43,30.27,30.22,30.19,10,10,5,21,9,25,0.04,4,Rain,81
2010-11-22,83,78,72,66,63,60,74,61,47,30.25,30.20,30.16,10,10,10,20,12,24,T,4,,87
2010-11-23,82,73,64,65,62,60,87,67,47,30.15,30.11,30.07,10,10,10,16,7,22,0.00,3,,45
2010-11-24,82,74,65,67,65,63,93,74,54,30.12,30.07,30.02,10,10,10,14,6,18,0.00,3,,75
2010-11-25,83,78,73,68,65,62,74,65,55,30.10,30.05,30.03,10,10,10,17,10,25,0.00,4,,123
2010-11-26,82,77,72,70,66,64,87,71,55,30.03,29.99,29.95,10,10,2,21,9,24,0.06,6,Rain,178
2010-11-27,85,75,65,71,68,65,97,76,55,30.02,29.98,29.94,10,10,8,17,6,21,T,5,,284
2010-11-28,80,74,68,69,67,64,90,81,71,30.10,30.05,30.01,10,10,9,18,9,24,T,5,,60
2010-11-29,83,76,68,72,69,65,93,79,65,30.16,30.10,30.07,10,10,8,18,8,23,0.03,5,Rain,97
2010-11-30,83,79,74,74,70,67,94,80,65,30.11,30.06,30.02,10,10,5,20,11,25,0.15,5,Rain,148